Deer Isle, ME (04627)

9:25 PM EDT on May 04, 2015 (GMT -0400)
Southeast Harbor Stonington, ME | | Change Station
CLOSE
Current Station
Personal Weather Station
Location: Stonington, ME
Elevation: 28 ft
Nearby Weather Stations

Elev 28 ft 44.20 °N, 68.64 °W | Updated 22 seconds ago

Clear
Clear
52.9 °F
Feels Like 52.9 °F
N
11.0
Wind Variable Wind from South
Gusts 13.0 mph

Today
High -- | Low -- °F
--% Chance of Precip.
Yesterday
High -- | Low -- °F
Precip. -- in
5:21 AM 7:41 PM
Full, 99% visible
Pressure 30.03 in
Visibility 10.0 miles
Clouds Clear
Dew Point 45 °F
Humidity 75%
Rainfall -999.00 in
Snow Depth Not available.
UV 0 out of 12
Pollen 10.60 out of 12
Air Quality Not available.
Flu Activity Regional
METAR KBHB 050115Z 20009KT 10SM CLR 11/08 A3003 RMK AO1

More Conditions Fewer Conditions

Pressure 30.03 in
Visibility 10.0 miles
Clouds Clear
Dew Point 45 °F
Humidity 75%
Rainfall -999.00 in
Snow Depth Not available.
UV 0 out of 12
Pollen 10.60 out of 12
Air Quality Not available.
Flu Activity Regional
METAR KBHB 050115Z 20009KT 10SM CLR 11/08 A3003 RMK AO1

More Conditions Fewer Conditions

Nepal has a long way to go to dig out and rebuild from a devastating earthquake. We have teamed up with several charities and organizations to make contributing to the relief effort as easy as possible.
How you can help: Portlight Strategies | Red Cross

10-Day Weather Forecast

Almanac

Astronomy

May. 04, 2015 Rise Set
Actual Time
Civil Twilight
Nautical Twilight
Astronomical Twilight
Moon
Length of Visible Light
Length of Day
Tomorrow will be .
, % of the Moon is Illuminated

Today's Extremes

State Highs State Lows

Community

WunderPhotos

Upload Photos

1,818,771 photos uploaded!

WunderBlogs® & News

Nearby

Air Quality

  Air Quality AQ Index Pollutant
Not available.

Snow Depth

Station Depth Elevation

Earthquake Activity

City Distance Mag. Time & Date
Minimum magnitude displayed is 2.5.

Coastal Water Temperatures

Place Temperature

Stations

Nearby Weather Stations

Station Location Temp. Windchill Dew Point Humidity Wind Precip. Elev Updated Type